Sanbornville, New Hampshire
Current Conditions -  °F | °C
As of 9:15 AM on Thursday 18 Dec 2014 (Local Time) from KSFM Reporting Station
Clear Clear  
Wind Chill: 30°   Ceiling: Unl
Heat Index: 37°   Visibility: 10mi
Dew Point: 28°   Wind: 10mph
Humidity: 70%   Direction: 300°WNW
Pressure: 29.71"   Gusts: 23mph
Location:  43.55°N, 71.03°W
Report Text: KSFM 181415Z AUTO 30009G20KT 10SM CLR 03/M02 A2971 RMK AO1
Loading
Personal Weather Stations






























Interactive Weather Map New forecast layout! Learn more

10-Day Weather Forecast

Advertisements
Track Severe Weather on mobile